createdAt,value
2024-05-09T00:01:04.115Z,39.75
2024-05-09T00:04:08.611Z,39.63
2024-05-09T00:07:12.992Z,39.28
2024-05-09T00:10:25.352Z,39.27
2024-05-09T00:13:39.685Z,39.46
2024-05-09T00:16:44.020Z,39.70
2024-05-09T00:19:48.348Z,39.09
2024-05-09T00:22:52.722Z,39.59
2024-05-09T00:25:57.248Z,39.27
2024-05-09T00:29:04.146Z,39.37
2024-05-09T00:32:09.890Z,39.28
2024-05-09T00:35:14.348Z,39.29
2024-05-09T00:38:18.865Z,39.76
2024-05-09T00:41:23.175Z,39.53
2024-05-09T00:44:30.092Z,39.34
2024-05-09T00:47:34.744Z,39.50
2024-05-09T00:50:41.692Z,39.76
2024-05-09T00:53:46.592Z,39.28
2024-05-09T00:56:52.288Z,39.65
2024-05-09T00:59:59.338Z,39.30
2024-05-09T01:03:03.802Z,39.68
2024-05-09T01:06:08.408Z,39.66
2024-05-09T01:09:12.776Z,39.59
2024-05-09T01:12:17.259Z,39.42
2024-05-09T01:15:24.155Z,39.36
2024-05-09T01:18:28.744Z,39.17
2024-05-09T01:21:33.146Z,39.41
2024-05-09T01:24:40.037Z,39.54
2024-05-09T01:27:44.306Z,39.62
2024-05-09T01:30:48.644Z,39.57
2024-05-09T01:33:52.985Z,39.35
2024-05-09T01:36:57.292Z,39.38
2024-05-09T01:40:07.332Z,39.63
2024-05-09T01:43:13.725Z,39.61
2024-05-09T01:46:19.399Z,39.25
2024-05-09T01:49:23.922Z,39.52
2024-05-09T01:52:28.347Z,39.58
2024-05-09T01:55:35.249Z,39.52
2024-05-09T01:58:39.562Z,39.32
2024-05-09T02:01:56.349Z,39.68
2024-05-09T02:05:02.155Z,39.65
2024-05-09T02:08:07.213Z,39.29
2024-05-09T02:11:14.387Z,39.22
2024-05-09T02:14:20.674Z,39.22
2024-05-09T02:17:25.140Z,39.61
2024-05-09T02:20:35.824Z,39.53
2024-05-09T02:23:41.188Z,39.33
2024-05-09T02:26:48.052Z,39.61
2024-05-09T02:29:52.352Z,39.81
2024-05-09T02:32:56.695Z,39.40
2024-05-09T02:36:01.054Z,39.39
2024-05-09T02:39:02.781Z,39.14
2024-05-09T02:42:09.717Z,39.18
2024-05-09T02:45:11.554Z,39.63
2024-05-09T02:48:15.976Z,39.16
2024-05-09T02:51:17.827Z,39.37
2024-05-09T02:54:22.114Z,39.21
2024-05-09T02:57:26.350Z,39.71
2024-05-09T03:00:38.114Z,39.41
2024-05-09T03:03:48.339Z,39.45
2024-05-09T03:06:50.194Z,39.41
2024-05-09T03:09:54.438Z,39.49
2024-05-09T03:13:01.467Z,39.58
2024-05-09T03:16:03.319Z,39.68
2024-05-09T03:19:07.761Z,39.28
2024-05-09T03:22:09.517Z,39.79
2024-05-09T03:25:13.775Z,39.69
2024-05-09T03:28:20.639Z,39.68
2024-05-09T03:31:22.310Z,39.47
2024-05-09T03:34:26.744Z,39.25
2024-05-09T03:37:30.988Z,39.34
2024-05-09T03:40:35.264Z,39.12
2024-05-09T03:43:42.148Z,39.33
2024-05-09T03:46:46.476Z,38.61
2024-05-09T03:49:48.201Z,38.97
2024-05-09T03:52:52.539Z,38.53
2024-05-09T03:55:54.313Z,38.35
2024-05-09T03:59:01.486Z,38.36
2024-05-09T04:02:05.483Z,38.37
2024-05-09T04:05:09.876Z,38.53
2024-05-09T04:08:11.820Z,38.49
2024-05-09T04:11:16.315Z,38.44
2024-05-09T04:14:20.677Z,38.09
2024-05-09T04:17:25.072Z,38.27
2024-05-09T04:23:34.369Z,38.21
2024-05-09T04:26:38.809Z,38.12
2024-05-09T04:29:43.099Z,38.37
2024-05-09T04:32:47.527Z,38.47
2024-05-09T04:35:52.020Z,38.40
2024-05-09T04:38:53.696Z,37.77
2024-05-09T04:41:58.192Z,37.74
2024-05-09T04:45:02.490Z,37.99
2024-05-09T04:48:07.611Z,37.46
2024-05-09T04:51:09.409Z,38.03
2024-05-09T04:54:25.741Z,38.31
2024-05-09T04:57:34.630Z,37.36
2024-05-09T05:00:40.293Z,38.27
2024-05-09T05:03:45.454Z,37.87
2024-05-09T05:06:47.233Z,38.06
2024-05-09T05:09:51.551Z,38.13
2024-05-09T05:13:11.957Z,37.89
2024-05-09T05:16:18.956Z,38.41
2024-05-09T05:19:20.793Z,38.12
2024-05-09T05:22:25.137Z,38.00
2024-05-09T05:25:26.876Z,38.12
2024-05-09T05:28:31.186Z,38.26
2024-05-09T05:31:35.546Z,37.78
2024-05-09T05:34:39.828Z,37.69
2024-05-09T05:37:44.171Z,37.57
2024-05-09T05:40:47.011Z,37.58
2024-05-09T05:43:51.321Z,37.62
2024-05-09T05:46:55.670Z,37.61
2024-05-09T05:49:59.976Z,37.75
2024-05-09T05:53:01.775Z,37.72
2024-05-09T05:56:07.456Z,37.89
2024-05-09T05:59:09.613Z,37.35
2024-05-09T06:02:17.241Z,37.69
2024-05-09T06:05:19.045Z,37.77
2024-05-09T06:08:24.704Z,37.71
2024-05-09T06:11:27.421Z,37.84
2024-05-09T06:14:31.792Z,37.75
2024-05-09T06:17:36.369Z,37.84
2024-05-09T06:20:42.243Z,37.81
2024-05-09T06:23:45.928Z,38.24
2024-05-09T06:26:50.304Z,38.23
2024-05-09T06:29:52.005Z,38.44
2024-05-09T06:32:59.082Z,38.32
2024-05-09T06:36:01.126Z,38.27
2024-05-09T06:39:05.434Z,38.89
2024-05-09T06:42:09.681Z,38.63
2024-05-09T06:45:11.395Z,38.94
2024-05-09T06:48:20.744Z,38.33
2024-05-09T06:51:23.046Z,38.95
2024-05-09T06:54:27.410Z,38.56
2024-05-09T06:57:30.860Z,38.82
2024-05-09T07:00:39.406Z,38.59
2024-05-09T07:03:45.751Z,38.98
2024-05-09T07:06:50.116Z,38.29
2024-05-09T07:09:51.835Z,38.55
2024-05-09T07:12:56.112Z,38.69
2024-05-09T07:15:57.807Z,39.01
2024-05-09T07:19:04.896Z,39.06
2024-05-09T07:22:09.332Z,38.88
2024-05-09T07:25:10.983Z,38.93
2024-05-09T07:28:16.736Z,39.08
2024-05-09T07:31:18.607Z,39.13
2024-05-09T07:34:25.594Z,39.18
2024-05-09T07:37:29.989Z,39.07
2024-05-09T07:40:36.992Z,39.00
2024-05-09T07:43:38.953Z,38.97
2024-05-09T07:51:32.772Z,38.85
2024-05-09T07:53:37.859Z,39.16
2024-05-09T07:56:40.594Z,39.33
2024-05-09T07:59:42.339Z,38.88
2024-05-09T08:02:46.643Z,39.00
2024-05-09T08:05:51.672Z,38.91
2024-05-09T08:08:57.868Z,39.39
2024-05-09T08:12:03.440Z,39.06
2024-05-09T08:15:06.130Z,38.66
2024-05-09T08:18:11.328Z,38.94
2024-05-09T08:21:19.266Z,39.18
2024-05-09T08:24:20.962Z,39.06
2024-05-09T08:27:27.135Z,39.06
2024-05-09T08:30:34.131Z,39.11
2024-05-09T08:33:46.601Z,38.98
2024-05-09T08:36:51.359Z,38.86
2024-05-09T08:39:55.754Z,38.87
2024-05-09T08:42:57.751Z,38.80
2024-05-09T08:46:02.940Z,39.00
2024-05-09T08:49:04.938Z,38.88
2024-05-09T08:52:12.370Z,39.11
2024-05-09T08:55:14.638Z,39.12
2024-05-09T08:58:20.763Z,39.24
2024-05-09T09:01:22.898Z,39.24
2024-05-09T09:04:27.584Z,39.22
2024-05-09T09:07:33.423Z,38.97
2024-05-09T09:10:37.900Z,39.14
2024-05-09T09:13:39.674Z,39.06
2024-05-09T09:16:45.939Z,39.33
2024-05-09T09:19:47.672Z,39.02
2024-05-09T09:22:54.590Z,39.23
2024-05-09T09:25:58.507Z,39.60
2024-05-09T09:29:03.348Z,39.17
2024-05-09T09:32:06.726Z,38.99
2024-05-09T09:35:11.022Z,39.00
2024-05-09T09:38:18.385Z,38.79
2024-05-09T09:41:26.079Z,39.05
2024-05-09T09:44:28.251Z,39.22
2024-05-09T09:47:33.628Z,39.03
2024-05-09T09:50:35.931Z,39.04
2024-05-09T09:53:43.401Z,38.84
2024-05-09T09:56:48.685Z,38.81
2024-05-09T09:59:50.637Z,38.76
2024-05-09T10:02:54.968Z,39.40
2024-05-09T10:05:57.324Z,39.09
2024-05-09T10:09:04.278Z,39.42
2024-05-09T10:12:09.981Z,39.46
2024-05-09T10:15:14.621Z,38.79
2024-05-09T10:18:22.722Z,38.59
2024-05-09T10:21:24.510Z,38.92
2024-05-09T10:24:31.426Z,39.15
2024-05-09T10:27:33.364Z,38.85
2024-05-09T10:30:38.503Z,38.77
2024-05-09T10:33:45.851Z,38.97
2024-05-09T10:36:55.668Z,39.04
2024-05-09T10:40:01.184Z,38.86
2024-05-09T10:43:06.555Z,38.71
2024-05-09T10:46:09.383Z,38.85
2024-05-09T10:49:15.631Z,39.25
2024-05-09T10:52:20.247Z,38.97
2024-05-09T10:55:27.488Z,39.13
2024-05-09T10:58:31.807Z,38.56
2024-05-09T11:01:36.262Z,38.77
2024-05-09T11:04:41.843Z,38.89
2024-05-09T11:07:43.680Z,39.04
2024-05-09T11:10:52.132Z,38.92
2024-05-09T11:13:53.952Z,38.72
2024-05-09T11:17:02.000Z,39.24
2024-05-09T11:20:13.626Z,38.86
2024-05-09T11:23:22.147Z,39.32
2024-05-09T11:26:29.338Z,39.03
2024-05-09T11:29:40.942Z,38.64
2024-05-09T11:32:45.507Z,38.59
2024-05-09T11:35:47.351Z,38.99
2024-05-09T11:38:51.691Z,38.49
2024-05-09T11:41:56.435Z,39.19
2024-05-09T11:45:00.740Z,39.12
2024-05-09T11:48:03.629Z,38.93
2024-05-09T11:51:08.538Z,38.73
2024-05-09T11:54:12.810Z,38.91
2024-05-09T11:57:17.065Z,38.82
2024-05-09T12:00:29.487Z,39.03
2024-05-09T12:03:40.763Z,38.96
2024-05-09T12:06:46.261Z,38.79
2024-05-09T12:09:50.723Z,38.77
2024-05-09T12:12:55.110Z,38.74
2024-05-09T12:15:59.488Z,38.47
2024-05-09T12:19:01.518Z,38.42
2024-05-09T12:22:07.086Z,38.65
2024-05-09T12:25:08.947Z,38.64
2024-05-09T12:28:17.330Z,38.82
2024-05-09T12:31:21.793Z,38.42
2024-05-09T12:34:23.595Z,38.67
2024-05-09T12:37:27.902Z,38.49
2024-05-09T12:40:36.475Z,38.53
2024-05-09T12:43:45.334Z,38.85
2024-05-09T12:46:47.070Z,38.82
2024-05-09T12:49:51.415Z,38.79
2024-05-09T12:52:53.185Z,38.63
2024-05-09T12:56:01.835Z,38.64
2024-05-09T12:59:10.109Z,38.88
2024-05-09T13:02:12.394Z,38.76
2024-05-09T13:05:17.249Z,38.70
2024-05-09T13:08:22.537Z,38.56
2024-05-09T13:11:26.857Z,38.94
2024-05-09T13:14:31.321Z,38.52
2024-05-09T13:17:35.687Z,38.28
2024-05-09T13:20:37.503Z,38.39
2024-05-09T13:23:41.902Z,38.29
2024-05-09T13:26:43.655Z,38.45
2024-05-09T13:29:50.543Z,38.26
2024-05-09T13:32:55.874Z,38.41
2024-05-09T13:35:57.995Z,37.83
2024-05-09T13:39:02.302Z,38.37
2024-05-09T13:42:07.072Z,38.47
2024-05-09T13:45:11.380Z,37.98
2024-05-09T13:48:17.089Z,38.33
2024-05-09T13:51:18.851Z,38.49
2024-05-09T13:54:23.108Z,38.74
2024-05-09T13:57:27.535Z,38.39
2024-05-09T14:00:44.268Z,38.40
2024-05-09T14:03:52.674Z,38.15
2024-05-09T14:06:57.142Z,38.28
2024-05-09T14:09:59.037Z,38.54
2024-05-09T14:13:03.479Z,38.45
2024-05-09T14:16:08.749Z,38.14
2024-05-09T14:19:13.125Z,38.03
2024-05-09T14:22:14.875Z,38.05
2024-05-09T14:25:19.398Z,38.18
2024-05-09T14:28:28.562Z,38.29
2024-05-09T14:31:34.837Z,38.03
2024-05-09T14:34:40.621Z,38.29
2024-05-09T14:37:45.038Z,38.37
2024-05-09T14:40:47.058Z,38.32
2024-05-09T14:43:51.397Z,37.92
2024-05-09T14:46:55.868Z,38.28
2024-05-09T14:50:00.190Z,38.40
2024-05-09T14:53:02.114Z,38.19
2024-05-09T14:56:07.064Z,37.85
2024-05-09T14:59:09.156Z,38.05
2024-05-09T15:02:16.316Z,38.13
2024-05-09T15:05:18.289Z,38.01
2024-05-09T15:08:23.159Z,37.99
2024-05-09T15:11:24.886Z,37.62
2024-05-09T15:14:29.210Z,37.63
2024-05-09T15:17:34.508Z,38.13
2024-05-09T15:20:40.364Z,37.78
2024-05-09T15:23:42.536Z,37.87
2024-05-09T15:26:46.805Z,38.26
2024-05-09T15:29:51.149Z,38.05
2024-05-09T15:32:55.511Z,38.02
2024-05-09T15:35:59.816Z,37.95
2024-05-09T15:39:05.362Z,37.97
2024-05-09T15:42:07.059Z,38.13
2024-05-09T15:45:11.295Z,38.14
2024-05-09T15:48:15.623Z,37.92
2024-05-09T15:51:19.987Z,37.59
2024-05-09T15:54:25.461Z,37.77
2024-05-09T15:57:27.325Z,37.39
2024-05-09T16:03:41.827Z,37.64
2024-05-09T16:06:47.969Z,37.57
2024-05-09T16:09:49.648Z,37.72
2024-05-09T16:12:53.953Z,37.90
2024-05-09T16:15:58.364Z,37.65
2024-05-09T16:19:02.774Z,37.90
2024-05-09T16:22:07.345Z,37.70
2024-05-09T16:25:09.438Z,37.57
2024-05-09T16:28:14.164Z,37.73
2024-05-09T16:31:18.635Z,37.83
2024-05-09T16:34:22.989Z,37.83
2024-05-09T16:37:29.579Z,37.65
2024-05-09T16:40:37.957Z,37.58
2024-05-09T16:43:44.788Z,37.90
2024-05-09T16:46:46.607Z,37.71
2024-05-09T16:49:53.477Z,38.09
2024-05-09T16:52:55.152Z,38.15
2024-05-09T16:55:59.458Z,37.63
2024-05-09T16:59:01.221Z,38.00
2024-05-09T17:02:05.802Z,37.79
2024-05-09T17:05:10.817Z,37.80
2024-05-09T17:08:15.346Z,38.06
2024-05-09T17:11:19.647Z,38.10
2024-05-09T17:14:23.976Z,37.35
2024-05-09T17:17:28.373Z,37.04
2024-05-09T17:20:37.229Z,36.00
2024-05-09T17:23:39.517Z,35.80
2024-05-09T17:26:43.800Z,35.39
2024-05-09T17:29:45.712Z,34.63
2024-05-09T17:32:50.021Z,34.70
2024-05-09T17:35:56.924Z,34.57
2024-05-09T17:38:58.676Z,34.42
2024-05-09T17:42:02.906Z,34.48
2024-05-09T17:45:07.767Z,33.68
2024-05-09T17:48:11.035Z,34.15
2024-05-09T17:51:18.939Z,33.78
2024-05-09T17:54:20.674Z,33.93
2024-05-09T17:57:25.086Z,33.81
2024-05-09T18:03:34.309Z,34.10
2024-05-09T18:06:41.450Z,33.87
2024-05-09T18:09:43.195Z,33.98
2024-05-09T18:12:47.805Z,33.80
2024-05-09T18:15:49.651Z,34.32
2024-05-09T18:18:54.240Z,35.22
2024-05-09T18:22:01.217Z,35.60
2024-05-09T18:25:03.269Z,36.21
2024-05-09T18:28:09.006Z,36.33
2024-05-09T18:31:13.426Z,36.57
2024-05-09T18:34:15.319Z,36.88
2024-05-09T18:37:22.311Z,36.87
2024-05-09T18:40:31.355Z,37.13
2024-05-09T18:43:44.982Z,37.14
2024-05-09T18:46:50.340Z,37.36
2024-05-09T18:49:54.873Z,37.52
2024-05-09T18:52:59.164Z,37.40
2024-05-09T18:56:03.433Z,37.46
2024-05-09T18:59:05.605Z,38.09
2024-05-09T19:02:10.032Z,37.79
2024-05-09T19:05:14.619Z,37.90
2024-05-09T19:08:18.967Z,38.53
2024-05-09T19:11:23.252Z,38.80
2024-05-09T19:14:27.656Z,39.66
2024-05-09T19:17:32.037Z,40.84
2024-05-09T19:20:35.731Z,41.78
2024-05-09T19:23:50.438Z,42.64
2024-05-09T19:26:53.795Z,42.85
2024-05-09T19:29:58.100Z,43.55
2024-05-09T19:33:02.553Z,44.05
2024-05-09T19:36:05.158Z,44.28
2024-05-09T19:39:12.154Z,44.54
2024-05-09T19:42:13.838Z,44.96
2024-05-09T19:45:18.467Z,44.84
2024-05-09T19:48:21.676Z,45.40
2024-05-09T19:51:25.949Z,45.23
2024-05-09T19:54:30.342Z,45.56
2024-05-09T19:57:34.619Z,45.33
2024-05-09T20:00:39.908Z,45.71
2024-05-09T20:03:46.732Z,46.11
2024-05-09T20:06:48.572Z,46.00
2024-05-09T20:09:55.518Z,45.71
2024-05-09T20:12:57.496Z,46.40
2024-05-09T20:16:02.615Z,46.19
2024-05-09T20:19:04.731Z,46.37
2024-05-09T20:22:09.237Z,46.38
2024-05-09T20:25:13.825Z,45.76
2024-05-09T20:28:18.282Z,46.30
2024-05-09T20:31:21.508Z,45.98
2024-05-09T20:34:25.988Z,46.03
2024-05-09T20:37:27.791Z,46.29
2024-05-09T20:40:37.984Z,46.29
2024-05-09T20:43:41.103Z,46.38
2024-05-09T20:46:45.337Z,46.26
2024-05-09T20:49:47.178Z,46.38
2024-05-09T20:52:51.537Z,46.29
2024-05-09T20:55:57.241Z,46.33
2024-05-09T20:59:01.558Z,46.73
2024-05-09T21:02:03.407Z,46.54
2024-05-09T21:05:08.138Z,46.66
2024-05-09T21:08:10.162Z,46.38
2024-05-09T21:11:17.351Z,46.42
2024-05-09T21:14:21.828Z,46.09
2024-05-09T21:17:23.577Z,46.72
2024-05-09T21:20:31.744Z,46.46
2024-05-09T21:23:34.749Z,46.81
2024-05-09T21:26:41.652Z,46.21
2024-05-09T21:29:43.310Z,45.97
2024-05-09T21:32:47.691Z,45.90
2024-05-09T21:35:49.480Z,45.91
2024-05-09T21:38:53.764Z,46.19
2024-05-09T21:42:01.729Z,46.40
2024-05-09T21:45:06.465Z,46.00
2024-05-09T21:48:11.294Z,46.15
2024-05-09T21:51:16.063Z,46.19
2024-05-09T21:54:17.762Z,46.25
2024-05-09T21:57:24.624Z,46.05
2024-05-09T22:00:34.531Z,46.43
2024-05-09T22:03:41.829Z,46.61
2024-05-09T22:06:43.630Z,46.40
2024-05-09T22:09:47.968Z,46.09
2024-05-09T22:12:52.298Z,46.19
2024-05-09T22:15:56.675Z,46.32
2024-05-09T22:19:01.085Z,46.36
2024-05-09T22:22:03.086Z,46.00
2024-05-09T22:25:08.277Z,46.15
2024-05-09T22:28:13.465Z,46.29
2024-05-09T22:31:18.460Z,46.61
2024-05-09T22:34:20.320Z,46.35
2024-05-09T22:37:24.630Z,46.61
2024-05-09T22:40:38.132Z,46.51
2024-05-09T22:43:53.122Z,46.27
2024-05-09T22:46:54.863Z,46.54
2024-05-09T22:49:59.144Z,46.47
2024-05-09T22:53:00.990Z,46.39
2024-05-09T22:56:05.360Z,46.52
2024-05-09T22:59:09.760Z,46.47
2024-05-09T23:02:14.277Z,46.53
2024-05-09T23:05:16.156Z,46.46
2024-05-09T23:08:20.519Z,46.35
2024-05-09T23:11:22.228Z,46.50
2024-05-09T23:14:29.121Z,46.09
2024-05-09T23:17:31.020Z,46.09
2024-05-09T23:20:38.788Z,45.97
2024-05-09T23:23:44.983Z,46.27
2024-05-09T23:26:49.273Z,46.31
2024-05-09T23:29:53.610Z,46.00
2024-05-09T23:32:57.990Z,46.12
2024-05-09T23:35:59.756Z,46.17
2024-05-09T23:39:04.141Z,46.04
2024-05-09T23:42:05.887Z,45.67
2024-05-09T23:45:13.168Z,46.10
2024-05-09T23:48:15.004Z,45.92
2024-05-09T23:51:19.810Z,45.97
2024-05-09T23:54:24.056Z,45.67
2024-05-09T23:57:25.767Z,45.63
